Time;durP1;ratioP1;P1;durP2;ratioP2;P2;SDS_P1;SDS_P2;PMS_P1;PMS_P2;Temp;Humidity;BMP_temperature;BMP_pressure;BME280_temperature;BME280_humidity;BME280_pressure;Samples;Min_cycle;Max_cycle;Signal;HPM_P1;HPM_P2
2022/07/01 00:00:37;;;;;;;4.68;1.60;;;16.00;99.90;;;;;;5066566;28;20045;-64
2022/07/01 00:03:04;;;;;;;1.17;0.77;;;16.10;99.90;;;;;;5066318;28;20120;-64
2022/07/01 00:05:29;;;;;;;4.60;1.02;;;16.10;99.90;;;;;;5064982;28;20249;-64
2022/07/01 00:07:55;;;;;;;4.28;1.10;;;16.10;99.90;;;;;;5066216;28;20132;-64
2022/07/01 00:10:21;;;;;;;2.47;1.15;;;16.10;99.90;;;;;;5065422;28;20087;-64
2022/07/01 00:12:47;;;;;;;4.22;1.48;;;16.30;99.90;;;;;;5063997;28;20052;-64
2022/07/01 00:15:13;;;;;;;2.63;1.10;;;16.00;99.90;;;;;;5065410;28;20044;-64
2022/07/01 00:17:39;;;;;;;2.47;1.08;;;16.10;99.90;;;;;;5066853;28;20562;-64
2022/07/01 00:20:05;;;;;;;1.73;0.85;;;16.40;99.90;;;;;;5065458;28;20436;-64
2022/07/01 00:22:31;;;;;;;1.90;0.80;;;16.10;99.90;;;;;;5066580;28;20254;-64
2022/07/01 00:24:57;;;;;;;5.65;1.00;;;16.10;99.90;;;;;;5066070;28;20044;-64
2022/07/01 00:27:22;;;;;;;2.03;1.00;;;16.10;99.90;;;;;;5065394;28;20199;-64
2022/07/01 00:29:48;;;;;;;2.85;0.98;;;16.10;99.90;;;;;;5065942;28;20387;-64
2022/07/01 00:32:13;;;;;;;2.08;1.17;;;16.10;99.90;;;;;;5066492;28;20044;-64
2022/07/01 00:34:39;;;;;;;5.57;1.00;;;16.00;99.90;;;;;;5066250;28;20075;-64
2022/07/01 00:37:05;;;;;;;3.03;0.90;;;16.10;99.90;;;;;;5066118;28;20321;-64
2022/07/01 00:39:35;;;;;;;3.60;1.17;;;16.00;99.90;;;;;;5066241;28;20132;-64
2022/07/01 00:42:03;;;;;;;2.90;1.10;;;16.00;99.90;;;;;;5065167;28;20148;-64
2022/07/01 00:44:29;;;;;;;2.25;0.57;;;16.00;99.90;;;;;;5066124;28;20032;-64
2022/07/01 00:46:55;;;;;;;1.35;0.80;;;15.90;99.90;;;;;;5065960;28;20506;-65
2022/07/01 00:49:21;;;;;;;4.28;0.98;;;15.90;99.90;;;;;;5065495;28;20376;-64
2022/07/01 00:51:47;;;;;;;1.65;0.63;;;15.90;99.90;;;;;;5065784;28;20048;-64
2022/07/01 00:54:14;;;;;;;1.02;0.50;;;15.90;99.90;;;;;;5066086;28;20093;-64
2022/07/01 00:56:39;;;;;;;4.75;0.82;;;15.90;99.90;;;;;;5065772;28;20055;-64
2022/07/01 00:59:05;;;;;;;1.20;0.60;;;15.90;99.90;;;;;;5065320;28;20361;-65
2022/07/01 01:01:31;;;;;;;1.35;0.70;;;15.90;99.90;;;;;;5065738;28;20690;-64
2022/07/01 01:03:56;;;;;;;3.63;0.80;;;15.90;99.90;;;;;;5064884;28;20499;-64
2022/07/01 01:06:22;;;;;;;1.52;0.90;;;15.80;99.90;;;;;;5065997;28;20411;-64
2022/07/01 01:08:48;;;;;;;1.20;0.80;;;15.90;99.90;;;;;;5064680;28;20491;-64
2022/07/01 01:11:15;;;;;;;0.98;0.60;;;15.90;99.90;;;;;;5065764;28;20056;-64
2022/07/01 01:13:42;;;;;;;3.85;0.98;;;15.80;99.90;;;;;;5066178;28;20430;-64
2022/07/01 01:16:08;;;;;;;1.10;0.80;;;15.80;99.90;;;;;;5065766;28;20040;-64
2022/07/01 01:18:34;;;;;;;2.92;0.77;;;15.80;99.90;;;;;;5065877;28;20156;-64
2022/07/01 01:21:00;;;;;;;1.63;0.80;;;15.70;99.90;;;;;;5065360;28;20511;-64
2022/07/01 01:23:26;;;;;;;1.17;0.98;;;15.80;99.90;;;;;;5063701;28;20040;-64
2022/07/01 01:25:51;;;;;;;1.30;0.90;;;15.80;99.90;;;;;;5065352;28;20036;-64
2022/07/01 01:28:17;;;;;;;1.30;1.20;;;15.80;99.90;;;;;;5069173;28;20572;-64
2022/07/01 01:30:43;;;;;;;2.50;1.08;;;15.70;99.90;;;;;;5068928;28;20040;-64
2022/07/01 01:33:09;;;;;;;1.60;0.95;;;15.80;99.90;;;;;;5068864;28;20162;-64
2022/07/01 01:35:35;;;;;;;2.50;1.15;;;15.80;99.90;;;;;;5069773;28;20577;-64
2022/07/01 01:38:00;;;;;;;2.08;1.20;;;15.80;99.90;;;;;;5068490;28;20047;-64
2022/07/01 01:40:26;;;;;;;1.48;1.23;;;15.80;99.90;;;;;;5069896;28;20043;-64
2022/07/01 01:42:52;;;;;;;3.35;1.10;;;15.70;99.90;;;;;;5069019;28;20130;-64
2022/07/01 01:45:17;;;;;;;2.15;1.30;;;15.70;99.90;;;;;;5068562;28;20502;-64
2022/07/01 01:47:43;;;;;;;1.40;1.30;;;15.80;99.90;;;;;;5069124;28;20040;-64
2022/07/01 01:50:12;;;;;;;1.23;1.10;;;15.70;99.90;;;;;;5069634;28;20044;-65
2022/07/01 01:52:38;;;;;;;2.63;1.30;;;15.70;99.90;;;;;;5069141;28;20075;-64
2022/07/01 01:55:04;;;;;;;1.60;1.50;;;15.70;99.90;;;;;;5068958;28;20040;-64
2022/07/01 01:57:30;;;;;;;1.52;1.02;;;15.70;99.90;;;;;;5068891;28;20147;-64
2022/07/01 01:59:56;;;;;;;4.95;1.30;;;15.60;99.90;;;;;;5068025;28;20116;-64
2022/07/01 02:02:21;;;;;;;2.17;1.27;;;15.60;99.90;;;;;;5069184;28;20424;-65
2022/07/01 02:04:48;;;;;;;1.40;1.30;;;15.60;99.90;;;;;;5068654;28;20032;-64
2022/07/01 02:07:13;;;;;;;1.55;1.45;;;15.50;99.90;;;;;;5068073;28;20183;-64
2022/07/01 02:09:39;;;;;;;1.70;1.60;;;15.40;99.90;;;;;;5068451;28;20124;-64
2022/07/01 02:12:05;;;;;;;3.33;1.65;;;15.50;99.90;;;;;;5067852;28;20334;-64
2022/07/01 02:14:31;;;;;;;2.00;1.42;;;15.50;99.90;;;;;;5069227;28;20109;-65
2022/07/01 02:16:56;;;;;;;3.78;1.55;;;15.50;99.90;;;;;;5068620;28;20051;-64
2022/07/01 02:19:22;;;;;;;2.53;1.50;;;15.50;99.90;;;;;;5068083;28;20091;-64
2022/07/01 02:21:50;;;;;;;1.40;1.30;;;15.50;99.90;;;;;;5068473;28;20123;-66
2022/07/01 02:24:17;;;;;;;2.92;1.42;;;15.40;99.90;;;;;;5067889;28;20446;-64
2022/07/01 02:26:42;;;;;;;3.00;1.23;;;15.50;99.90;;;;;;5067725;28;20132;-64
2022/07/01 02:29:08;;;;;;;2.65;1.42;;;15.50;99.90;;;;;;5067979;28;20119;-64
2022/07/01 02:31:33;;;;;;;3.05;1.50;;;15.40;99.90;;;;;;5068882;28;20059;-64
2022/07/01 02:33:59;;;;;;;2.25;1.40;;;15.40;99.90;;;;;;5067057;28;20043;-64
2022/07/01 02:36:24;;;;;;;3.92;1.30;;;15.40;99.90;;;;;;5068841;28;20056;-64
2022/07/01 02:38:50;;;;;;;3.03;1.52;;;15.40;99.90;;;;;;5066987;28;20047;-64
2022/07/01 02:41:16;;;;;;;2.30;1.60;;;15.40;99.90;;;;;;5083465;28;20048;-64
2022/07/01 02:43:42;;;;;;;1.55;1.40;;;15.40;99.90;;;;;;5067391;28;20479;-63
2022/07/01 02:46:08;;;;;;;2.75;1.58;;;15.30;99.90;;;;;;5068702;28;20044;-64
2022/07/01 02:48:33;;;;;;;2.08;1.30;;;15.30;99.90;;;;;;5067785;28;20453;-64
2022/07/01 02:50:59;;;;;;;18.23;1.25;;;15.30;99.90;;;;;;5067926;28;20562;-64
2022/07/01 02:53:24;;;;;;;1.48;1.23;;;15.30;99.90;;;;;;5068127;28;20075;-64
2022/07/01 02:55:51;;;;;;;1.42;1.25;;;15.40;99.90;;;;;;5067096;28;20045;-64
2022/07/01 02:58:17;;;;;;;1.58;1.25;;;15.20;99.90;;;;;;5068015;28;20053;-64
2022/07/01 03:00:42;;;;;;;1.60;1.50;;;15.30;99.90;;;;;;5068142;28;20465;-64
2022/07/01 03:03:08;;;;;;;1.65;1.33;;;15.20;99.90;;;;;;5067664;28;20355;-64
2022/07/01 03:05:34;;;;;;;2.00;1.58;;;15.10;99.90;;;;;;5068263;28;20044;-64
2022/07/01 03:07:59;;;;;;;3.00;1.52;;;15.10;99.90;;;;;;5067325;28;20135;-64
2022/07/01 03:10:25;;;;;;;3.50;1.88;;;15.20;99.90;;;;;;5067184;28;20431;-64
2022/07/01 03:12:51;;;;;;;1.88;1.73;;;15.10;99.90;;;;;;5067781;28;20483;-64
2022/07/01 03:15:16;;;;;;;2.10;1.65;;;15.10;99.90;;;;;;5067723;28;20036;-64
2022/07/01 03:17:44;;;;;;;2.92;1.77;;;15.00;99.90;;;;;;5067469;28;20036;-64
2022/07/01 03:20:13;;;;;;;5.57;2.13;;;15.00;99.90;;;;;;5068505;28;20048;-64
2022/07/01 03:22:39;;;;;;;2.20;1.73;;;15.50;99.90;;;;;;5067470;28;20048;-64
2022/07/01 03:25:05;;;;;;;2.25;2.05;;;15.10;99.90;;;;;;5067062;28;20052;-64
2022/07/01 03:27:31;;;;;;;3.05;2.15;;;15.00;99.90;;;;;;5066177;28;20348;-65
2022/07/01 03:29:57;;;;;;;4.43;1.88;;;15.00;99.90;;;;;;5065372;28;20045;-64
2022/07/01 03:32:23;;;;;;;3.60;2.05;;;15.00;99.90;;;;;;5067599;28;20509;-64
2022/07/01 03:34:51;;;;;;;3.50;2.00;;;15.00;99.90;;;;;;5067195;28;20090;-64
2022/07/01 03:37:17;;;;;;;2.33;2.13;;;14.90;99.90;;;;;;5066555;28;20067;-65
2022/07/01 03:39:44;;;;;;;2.40;2.17;;;14.90;99.90;;;;;;5065869;28;20048;-64
2022/07/01 03:42:10;;;;;;;2.45;2.17;;;14.90;99.90;;;;;;5067982;28;20045;-64
2022/07/01 03:44:36;;;;;;;7.03;2.75;;;15.00;99.90;;;;;;5066515;28;20083;-64
2022/07/01 03:47:03;;;;;;;3.35;2.25;;;14.90;99.90;;;;;;5066914;28;20422;-65
2022/07/01 03:49:29;;;;;;;2.50;1.85;;;14.90;99.90;;;;;;5067061;28;20033;-64
2022/07/01 03:51:54;;;;;;;2.47;2.28;;;14.80;99.90;;;;;;5065722;28;20624;-64
2022/07/01 03:54:29;;;;;;;2.67;2.47;;;14.90;99.90;;;;;;5066945;28;20072;-64
2022/07/01 03:57:09;;;;;;;2.50;2.30;;;14.90;99.90;;;;;;5066605;28;20098;-64
2022/07/01 03:59:39;;;;;;;5.40;2.40;;;14.90;99.90;;;;;;5064981;28;20554;-64
2022/07/01 04:02:06;;;;;;;2.95;2.20;;;14.90;99.90;;;;;;5066638;28;20055;-64
2022/07/01 04:04:32;;;;;;;2.72;2.53;;;14.90;99.90;;;;;;5066408;28;20511;-64
2022/07/01 04:06:59;;;;;;;2.50;2.20;;;15.00;99.90;;;;;;5066656;28;20041;-64
2022/07/01 04:09:26;;;;;;;3.47;2.17;;;15.00;99.90;;;;;;5065548;28;20053;-64
2022/07/01 04:11:53;;;;;;;4.47;2.92;;;15.00;99.90;;;;;;5065751;28;20052;-64
2022/07/01 04:14:19;;;;;;;3.00;2.67;;;15.00;99.90;;;;;;5066792;28;20036;-64
2022/07/01 04:16:45;;;;;;;4.13;3.00;;;15.30;99.90;;;;;;5066389;28;20044;-64
2022/07/01 04:19:16;;;;;;;2.50;2.30;;;15.00;99.90;;;;;;5066349;28;20036;-64
2022/07/01 04:24:28;;;;;;;4.22;2.83;;;15.00;99.90;;;;;;5066461;28;20503;-64
2022/07/01 04:26:54;;;;;;;3.97;3.13;;;15.00;99.90;;;;;;5065384;28;20052;-64
2022/07/01 04:29:20;;;;;;;6.82;3.42;;;15.30;99.90;;;;;;5066279;28;20101;-64
2022/07/01 04:31:46;;;;;;;3.58;3.28;;;15.00;99.90;;;;;;5064955;28;20098;-64
2022/07/01 04:34:12;;;;;;;7.32;3.75;;;15.00;99.90;;;;;;5064157;28;20403;-64
2022/07/01 04:36:38;;;;;;;3.53;3.22;;;15.00;99.90;;;;;;5067112;28;20079;-64
2022/07/01 04:39:04;;;;;;;5.25;3.75;;;15.00;99.90;;;;;;5065671;28;20495;-64
2022/07/01 04:44:15;;;;;;;4.10;3.03;;;15.00;99.90;;;;;;5066141;28;20061;-64
2022/07/01 04:46:41;;;;;;;4.72;3.80;;;15.00;99.90;;;;;;5065387;28;20491;-64
2022/07/01 04:49:07;;;;;;;4.63;3.30;;;15.00;99.90;;;;;;5065666;28;20072;-64
2022/07/01 04:51:34;;;;;;;7.40;3.40;;;15.00;99.90;;;;;;5066058;28;20529;-64
2022/07/01 04:54:04;;;;;;;5.20;3.13;;;15.00;99.90;;;;;;5065146;28;20391;-64
2022/07/01 04:56:30;;;;;;;3.25;3.05;;;15.00;99.90;;;;;;5066363;28;20123;-64
2022/07/01 04:58:56;;;;;;;5.50;3.72;;;15.00;99.90;;;;;;5065453;28;20273;-64
2022/07/01 05:01:22;;;;;;;4.82;4.00;;;15.00;99.90;;;;;;5064664;28;20446;-64
2022/07/01 05:03:48;;;;;;;4.88;3.65;;;15.00;99.90;;;;;;5064183;28;20098;-64
2022/07/01 05:06:14;;;;;;;5.00;3.55;;;15.00;99.90;;;;;;5064468;28;20060;-64
2022/07/01 05:08:39;;;;;;;3.92;3.55;;;15.00;99.90;;;;;;5064066;28;20056;-64
2022/07/01 05:11:06;;;;;;;5.63;3.70;;;15.00;99.90;;;;;;5065250;28;21016;-64
2022/07/01 05:13:33;;;;;;;4.63;4.18;;;15.00;99.90;;;;;;5065781;28;20310;-64
2022/07/01 05:16:02;;;;;;;5.57;3.95;;;15.00;99.90;;;;;;5063299;28;20056;-64
2022/07/01 05:23:57;;;;;;;6.78;3.85;;;15.00;99.90;;;;;;5064326;28;20036;-64
2022/07/01 05:26:25;;;;;;;4.35;3.95;;;15.00;99.90;;;;;;5065769;28;20509;-64
2022/07/01 05:28:54;;;;;;;5.15;4.72;;;15.00;99.90;;;;;;5065476;28;20052;-64
2022/07/01 05:31:21;;;;;;;6.32;4.95;;;15.00;99.90;;;;;;5065109;28;20055;-64
2022/07/01 05:33:47;;;;;;;4.47;4.07;;;15.00;99.90;;;;;;5064970;28;20052;-64
2022/07/01 05:36:13;;;;;;;5.72;5.15;;;15.00;99.90;;;;;;5064933;28;20041;-64
2022/07/01 05:38:38;;;;;;;8.48;5.45;;;15.00;99.90;;;;;;5066030;28;20038;-63
2022/07/01 05:41:04;;;;;;;8.45;6.30;;;15.10;99.90;;;;;;5065420;28;20560;-64
2022/07/01 05:43:30;;;;;;;6.07;5.53;;;15.10;99.90;;;;;;5064838;28;20044;-64
2022/07/01 05:45:56;;;;;;;10.95;7.18;;;15.10;99.90;;;;;;5065165;28;20053;-64
2022/07/01 05:48:22;;;;;;;8.32;7.53;;;15.10;99.90;;;;;;5064063;28;20048;-64
2022/07/01 05:50:48;;;;;;;9.00;7.35;;;15.10;99.90;;;;;;5063137;28;20047;-65
2022/07/01 05:53:14;;;;;;;12.07;8.43;;;15.20;99.90;;;;;;5064129;28;20044;-64
2022/07/01 05:55:40;;;;;;;12.23;8.68;;;15.20;99.90;;;;;;5066188;28;20102;-64
2022/07/01 05:58:09;;;;;;;13.60;8.98;;;15.20;99.90;;;;;;5064039;28;20495;-64
2022/07/01 06:00:35;;;;;;;15.23;9.38;;;15.30;99.90;;;;;;5065411;28;20049;-64
2022/07/01 06:03:01;;;;;;;14.15;9.45;;;15.30;99.90;;;;;;5064896;28;20056;-64
2022/07/01 06:05:27;;;;;;;11.40;9.18;;;15.30;99.90;;;;;;5064700;28;20072;-64
2022/07/01 06:07:52;;;;;;;13.43;9.82;;;15.30;99.90;;;;;;5064750;28;20036;-64
2022/07/01 06:10:18;;;;;;;10.60;9.00;;;15.30;99.90;;;;;;5064238;28;20124;-64
2022/07/01 06:12:44;;;;;;;17.08;10.55;;;15.40;99.90;;;;;;5065181;28;20048;-64
2022/07/01 06:15:12;;;;;;;13.38;11.05;;;15.40;99.90;;;;;;5069004;28;20430;-64
2022/07/01 06:17:39;;;;;;;9.88;8.85;;;15.50;99.90;;;;;;5069924;28;20048;-64
2022/07/01 06:20:06;;;;;;;12.43;9.68;;;15.50;99.90;;;;;;5067679;28;20097;-65
2022/07/01 06:22:32;;;;;;;13.88;10.23;;;15.60;99.90;;;;;;5068308;28;20094;-64
2022/07/01 06:24:59;;;;;;;12.57;10.30;;;15.70;99.90;;;;;;5068510;28;20085;-64
2022/07/01 06:27:25;;;;;;;16.75;11.85;;;15.70;99.90;;;;;;5067944;28;20062;-64
2022/07/01 06:29:51;;;;;;;13.68;10.35;;;15.70;99.90;;;;;;5068263;28;20044;-64
2022/07/01 06:32:16;;;;;;;13.90;10.13;;;15.80;99.90;;;;;;5067841;28;20487;-64
2022/07/01 06:34:42;;;;;;;17.88;11.25;;;15.80;99.90;;;;;;5068217;28;20037;-64
2022/07/01 06:37:08;;;;;;;14.50;10.60;;;15.80;99.90;;;;;;5069008;28;20036;-64
2022/07/01 06:39:33;;;;;;;13.18;11.00;;;16.00;99.90;;;;;;5067765;28;20075;-64
2022/07/01 06:41:59;;;;;;;17.30;11.63;;;15.90;99.90;;;;;;5067870;28;20055;-64
2022/07/01 06:44:24;;;;;;;14.23;10.80;;;16.00;99.90;;;;;;5068164;28;20159;-64
2022/07/01 06:46:50;;;;;;;14.48;11.35;;;16.00;99.90;;;;;;5067140;28;20044;-64
2022/07/01 06:49:15;;;;;;;14.60;12.90;;;16.00;99.90;;;;;;5067921;28;20041;-64
2022/07/01 06:51:42;;;;;;;16.70;12.32;;;16.00;99.90;;;;;;5068934;28;20045;-64
2022/07/01 06:54:08;;;;;;;20.92;12.68;;;16.00;99.90;;;;;;5067778;28;20437;-64
2022/07/01 06:56:34;;;;;;;17.63;10.70;;;16.00;99.90;;;;;;5066882;28;20641;-64
2022/07/01 06:58:59;;;;;;;19.33;13.20;;;16.10;99.90;;;;;;5067590;28;20098;-64
2022/07/01 07:01:25;;;;;;;17.08;12.73;;;16.00;99.90;;;;;;5067158;28;20060;-65
2022/07/01 07:03:50;;;;;;;21.60;14.27;;;16.20;99.90;;;;;;5067489;28;20040;-64
2022/07/01 07:06:16;;;;;;;17.02;12.98;;;16.20;99.90;;;;;;5066922;28;20051;-64
2022/07/01 07:08:42;;;;;;;14.93;12.88;;;16.20;99.90;;;;;;5067112;28;21062;-64
2022/07/01 07:11:08;;;;;;;16.05;13.20;;;16.20;99.90;;;;;;5068575;28;20098;-64
2022/07/01 07:13:37;;;;;;;19.70;12.15;;;16.10;99.90;;;;;;5067920;28;20088;-64
2022/07/01 07:16:03;;;;;;;18.83;13.77;;;16.10;99.90;;;;;;5066667;28;20079;-64
2022/07/01 07:18:29;;;;;;;15.40;13.65;;;16.20;99.90;;;;;;5067621;28;20499;-64
2022/07/01 07:20:55;;;;;;;17.98;12.85;;;16.20;99.90;;;;;;5067606;28;20063;-64
2022/07/01 07:23:20;;;;;;;16.73;13.05;;;16.20;99.90;;;;;;5065546;28;20048;-64
2022/07/01 07:25:46;;;;;;;17.35;12.68;;;16.20;99.90;;;;;;5066577;28;20040;-64
2022/07/01 07:28:12;;;;;;;19.23;12.50;;;16.20;99.90;;;;;;5067689;28;20084;-64
2022/07/01 07:30:38;;;;;;;16.45;12.43;;;16.30;99.90;;;;;;5065983;28;20048;-64
2022/07/01 07:33:04;;;;;;;14.95;12.88;;;16.20;99.90;;;;;;5067429;28;20055;-64
2022/07/01 07:35:29;;;;;;;18.40;12.82;;;16.30;99.90;;;;;;5067658;28;20045;-64
2022/07/01 07:37:55;;;;;;;16.45;12.73;;;16.50;99.90;;;;;;5066578;28;20045;-64
2022/07/01 07:40:21;;;;;;;17.42;12.13;;;16.40;99.90;;;;;;5067211;28;20098;-64
2022/07/01 07:42:47;;;;;;;17.85;12.75;;;16.40;99.90;;;;;;5066273;28;20407;-64
2022/07/01 07:45:14;;;;;;;15.02;12.40;;;16.50;99.90;;;;;;5067204;28;20245;-64
2022/07/01 07:47:44;;;;;;;13.60;11.93;;;16.50;99.90;;;;;;5067487;28;20048;-64
2022/07/01 07:50:10;;;;;;;18.85;12.68;;;16.50;99.90;;;;;;5066960;28;20348;-64
2022/07/01 07:52:36;;;;;;;15.40;11.82;;;16.60;99.90;;;;;;5067006;28;20048;-64
2022/07/01 07:55:03;;;;;;;15.60;11.70;;;16.60;99.90;;;;;;5066736;28;20330;-64
2022/07/01 07:57:28;;;;;;;14.05;11.30;;;16.60;99.90;;;;;;5066099;28;20059;-64
2022/07/01 07:59:54;;;;;;;14.60;11.20;;;16.60;99.90;;;;;;5066343;28;20449;-64
2022/07/01 08:02:19;;;;;;;12.88;10.68;;;16.60;99.90;;;;;;5066712;28;20052;-64
2022/07/01 08:04:45;;;;;;;14.15;10.27;;;16.70;99.90;;;;;;5066339;28;20041;-64
2022/07/01 08:07:11;;;;;;;16.10;11.80;;;16.70;99.90;;;;;;5067218;28;20044;-64
2022/07/01 08:09:37;;;;;;;13.85;11.65;;;16.80;99.90;;;;;;5067529;28;20102;-64
2022/07/01 08:12:03;;;;;;;13.63;10.38;;;16.90;99.90;;;;;;5065487;28;20487;-64
2022/07/01 08:14:29;;;;;;;16.10;11.10;;;17.00;99.90;;;;;;5066695;28;20411;-64
2022/07/01 08:16:55;;;;;;;15.85;10.93;;;17.30;99.90;;;;;;5066012;28;20049;-64
2022/07/01 08:19:20;;;;;;;11.82;10.45;;;17.30;99.90;;;;;;5065924;28;20052;-64
2022/07/01 08:21:46;;;;;;;11.30;9.98;;;17.40;99.90;;;;;;5066105;28;20083;-64
2022/07/01 08:24:12;;;;;;;13.88;11.10;;;17.40;99.90;;;;;;5067043;28;20438;-63
2022/07/01 08:26:37;;;;;;;12.30;10.98;;;17.40;99.90;;;;;;5066284;28;20044;-64
2022/07/01 08:29:04;;;;;;;13.30;9.55;;;17.40;99.90;;;;;;5064570;28;20045;-64
2022/07/01 08:31:31;;;;;;;13.13;8.52;;;17.40;99.90;;;;;;5065203;28;20049;-64
2022/07/01 08:33:57;;;;;;;11.18;9.23;;;17.40;99.90;;;;;;5064966;28;20509;-64
2022/07/01 08:36:23;;;;;;;10.98;8.52;;;17.50;99.90;;;;;;5065532;28;20052;-64
2022/07/01 08:38:49;;;;;;;12.15;8.63;;;17.50;99.90;;;;;;5065731;28;20074;-64
2022/07/01 08:41:15;;;;;;;11.13;8.55;;;17.60;99.90;;;;;;5065729;28;20048;-64
2022/07/01 08:43:42;;;;;;;13.20;7.88;;;17.80;99.90;;;;;;5066568;28;20041;-64
2022/07/01 08:46:08;;;;;;;10.85;6.82;;;18.10;99.90;;;;;;5065573;28;20107;-65
2022/07/01 08:48:34;;;;;;;8.73;7.82;;;18.00;99.90;;;;;;5066368;28;20044;-64
2022/07/01 08:51:03;;;;;;;9.60;5.55;;;18.10;99.90;;;;;;5064282;28;20530;-64
2022/07/01 08:53:30;;;;;;;10.57;6.03;;;18.10;99.90;;;;;;5063979;28;20063;-64
2022/07/01 08:58:42;;;;;;;8.77;6.40;;;18.30;99.90;;;;;;5066210;28;20052;-64
2022/07/01 09:01:21;;;;;;;11.27;5.78;;;18.30;99.90;;;;;;5065438;28;20036;-64
2022/07/01 09:03:49;;;;;;;7.90;5.70;;;18.30;99.90;;;;;;5065854;28;20036;-65
2022/07/01 09:06:23;;;;;;;10.27;5.53;;;18.40;99.90;;;;;;5065846;28;20124;-64
2022/07/01 09:08:49;;;;;;;7.85;4.70;;;18.40;99.90;;;;;;5063318;28;20048;-65
2022/07/01 09:11:17;;;;;;;6.95;4.57;;;18.40;99.90;;;;;;5064271;28;20575;-64
2022/07/01 09:13:43;;;;;;;6.47;4.82;;;18.50;99.90;;;;;;5064276;28;20491;-64
2022/07/01 09:16:15;;;;;;;6.28;5.22;;;18.70;99.90;;;;;;5065300;28;20582;-65
2022/07/01 09:19:01;;;;;;;10.73;5.37;;;18.80;99.90;;;;;;5066266;28;20072;-65
2022/07/01 09:21:31;;;;;;;10.73;5.25;;;18.90;99.90;;;;;;5064469;28;20291;-64
2022/07/01 09:24:22;;;;;;;6.47;4.38;;;18.80;99.90;;;;;;5065411;28;20043;-64
2022/07/01 09:26:58;;;;;;;6.68;4.30;;;18.80;99.90;;;;;;5065465;28;20044;-65
2022/07/01 09:29:36;;;;;;;7.03;3.80;;;18.80;99.90;;;;;;5064936;28;20505;-65
2022/07/01 09:32:04;;;;;;;4.88;3.83;;;18.80;99.90;;;;;;5063805;28;20492;-64
2022/07/01 09:34:40;;;;;;;5.00;3.15;;;18.80;99.90;;;;;;5065860;28;20431;-64
2022/07/01 09:37:06;;;;;;;8.77;3.15;;;18.80;99.90;;;;;;5063324;28;20044;-64
2022/07/01 09:39:43;;;;;;;4.88;2.35;;;18.90;99.90;;;;;;5065714;28;20575;-64
2022/07/01 09:42:08;;;;;;;4.65;2.55;;;19.00;99.90;;;;;;5065490;28;20041;-64
2022/07/01 09:44:34;;;;;;;9.73;2.65;;;19.10;99.90;;;;;;5064450;28;20049;-64
2022/07/01 09:47:01;;;;;;;4.40;1.77;;;19.30;99.90;;;;;;5065282;28;20655;-64
2022/07/01 09:49:27;;;;;;;5.10;1.80;;;19.40;99.90;;;;;;5068584;28;20051;-64
2022/07/01 09:51:53;;;;;;;5.05;1.70;;;19.40;99.90;;;;;;5068974;28;20048;-64
2022/07/01 09:54:19;;;;;;;3.28;1.50;;;19.30;99.90;;;;;;5069364;28;20036;-64
2022/07/01 09:56:45;;;;;;;7.07;1.60;;;19.40;99.90;;;;;;5067520;28;20454;-65
2022/07/01 09:59:12;;;;;;;4.30;2.28;;;19.40;99.90;;;;;;5068013;28;20060;-64
2022/07/01 10:01:39;;;;;;;4.15;2.28;;;19.50;99.90;;;;;;5069574;28;20048;-64
2022/07/01 10:04:07;;;;;;;4.65;2.10;;;19.60;99.90;;;;;;5066340;28;20072;-64
2022/07/01 10:06:46;;;;;;;5.95;2.15;;;19.40;99.90;;;;;;5067803;28;20136;-64
2022/07/01 10:09:46;;;;;;;8.02;2.38;;;19.40;99.90;;;;;;5069068;28;20487;-63
2022/07/01 10:12:42;;;;;;;4.22;1.75;;;19.40;99.90;;;;;;5067635;28;20137;-64
2022/07/01 10:15:09;;;;;;;2.78;1.70;;;19.70;99.90;;;;;;5069121;28;20044;-65
2022/07/01 10:17:40;;;;;;;3.88;2.20;;;19.80;99.90;;;;;;5068211;28;20114;-64
2022/07/01 10:20:23;;;;;;;6.40;2.17;;;19.90;99.90;;;;;;5068980;28;20123;-65
2022/07/01 10:22:49;;;;;;;3.83;1.30;;;19.90;99.90;;;;;;5067355;28;20056;-64
2022/07/01 10:25:40;;;;;;;3.42;1.88;;;19.90;99.90;;;;;;5068066;28;20515;-65
2022/07/01 10:28:16;;;;;;;2.15;1.10;;;20.10;99.90;;;;;;5068338;28;20088;-64
2022/07/01 10:31:01;;;;;;;4.90;2.10;;;20.20;99.90;;;;;;5067513;28;20494;-64
2022/07/01 10:33:42;;;;;;;3.63;1.60;;;20.40;99.90;;;;;;5068194;28;20036;-64
2022/07/01 10:36:10;;;;;;;3.45;1.63;;;20.40;99.90;;;;;;5067879;28;20120;-64
2022/07/01 10:39:09;;;;;;;4.80;2.20;;;20.30;99.90;;;;;;5067720;28;20594;-64
2022/07/01 10:41:53;;;;;;;6.28;3.05;;;20.10;99.90;;;;;;5067102;28;20052;-65
2022/07/01 10:44:20;;;;;;;4.18;2.70;;;19.90;99.90;;;;;;5068320;28;20053;-64
2022/07/01 10:46:47;;;;;;;11.43;3.15;;;19.60;99.90;;;;;;5066129;28;20102;-64
2022/07/01 10:49:14;;;;;;;7.85;2.20;;;19.40;99.90;;;;;;5068323;28;20392;-64
2022/07/01 10:51:52;;;;;;;3.53;1.58;;;19.10;99.90;;;;;;5069230;28;20044;-64
2022/07/01 10:54:36;;;;;;;2.55;1.20;;;18.70;99.90;;;;;;5066412;28;20408;-64
2022/07/01 10:57:19;;;;;;;4.78;1.45;;;18.20;99.90;;;;;;5067708;28;20046;-64
2022/07/01 11:00:00;;;;;;;5.43;1.38;;;17.90;99.90;;;;;;5066686;28;20060;-64
2022/07/01 11:02:27;;;;;;;2.63;1.13;;;17.70;99.90;;;;;;5068393;28;20131;-64
2022/07/01 11:04:58;;;;;;;3.72;0.80;;;17.70;99.90;;;;;;5067676;28;20106;-64
2022/07/01 11:07:26;;;;;;;2.53;0.82;;;17.60;99.90;;;;;;5067396;28;20048;-64
2022/07/01 11:09:52;;;;;;;2.42;0.82;;;17.60;99.90;;;;;;5067789;28;20045;-64
2022/07/01 11:12:19;;;;;;;1.58;0.60;;;17.50;99.90;;;;;;5067991;28;20046;-64
2022/07/01 11:14:45;;;;;;;1.77;0.65;;;17.40;99.90;;;;;;5067341;28;20456;-64
2022/07/01 11:17:11;;;;;;;0.60;0.38;;;17.40;99.90;;;;;;5068595;28;20375;-64
2022/07/01 11:19:37;;;;;;;2.80;0.77;;;17.50;99.90;;;;;;5066668;28;20449;-65
2022/07/01 11:22:05;;;;;;;1.42;0.80;;;17.50;99.90;;;;;;5066778;28;20041;-64
2022/07/01 11:24:30;;;;;;;1.20;0.65;;;17.60;99.90;;;;;;5067694;28;20504;-64
2022/07/01 11:27:07;;;;;;;2.42;0.70;;;17.50;99.90;;;;;;5067204;28;20083;-64
2022/07/01 11:29:33;;;;;;;1.70;0.68;;;17.60;99.90;;;;;;5067047;28;20053;-64
2022/07/01 11:31:58;;;;;;;1.05;0.55;;;17.60;99.90;;;;;;5067322;28;20186;-64
2022/07/01 11:34:27;;;;;;;3.58;1.10;;;17.60;99.90;;;;;;5066341;28;20617;-64
2022/07/01 11:39:40;;;;;;;1.10;0.73;;;17.80;99.90;;;;;;5067927;28;20080;-64
2022/07/01 11:42:08;;;;;;;3.53;1.20;;;18.10;99.90;;;;;;5065657;28;20052;-64
2022/07/01 11:44:36;;;;;;;4.72;1.08;;;18.50;99.90;;;;;;5067477;28;20044;-64
2022/07/01 11:47:06;;;;;;;3.08;0.90;;;18.80;99.90;;;;;;5066929;28;20374;-64
2022/07/01 11:49:33;;;;;;;5.00;1.15;;;19.20;99.90;;;;;;5082216;28;20053;-64
2022/07/01 11:52:05;;;;;;;1.83;0.82;;;19.40;99.90;;;;;;5066966;28;20037;-64
2022/07/01 11:54:35;;;;;;;3.85;1.15;;;19.70;99.90;;;;;;5065853;28;20056;-64
2022/07/01 11:57:19;;;;;;;2.53;1.05;;;20.00;99.90;;;;;;5064615;28;20087;-64
2022/07/01 11:59:46;;;;;;;2.55;1.35;;;20.30;99.90;;;;;;5066759;28;20380;-64
2022/07/01 12:02:14;;;;;;;3.28;1.25;;;20.40;99.90;;;;;;5066331;28;20044;-64
2022/07/01 12:04:40;;;;;;;3.28;1.30;;;20.30;99.90;;;;;;5066711;28;20048;-65
2022/07/01 12:07:07;;;;;;;4.63;1.85;;;20.20;99.90;;;;;;5066633;28;20053;-64
2022/07/01 12:09:33;;;;;;;3.35;1.40;;;20.00;99.90;;;;;;5066918;28;20128;-64
2022/07/01 12:11:59;;;;;;;3.67;1.38;;;19.80;99.90;;;;;;5065661;28;20041;-64
2022/07/01 12:14:35;;;;;;;3.65;1.15;;;19.60;99.90;;;;;;5066670;28;20041;-64
2022/07/01 12:17:06;;;;;;;4.82;1.20;;;19.50;99.90;;;;;;5064386;28;20048;-64
2022/07/01 12:19:44;;;;;;;5.45;1.30;;;19.50;99.90;;;;;;5066808;28;20540;-64
2022/07/01 12:22:18;;;;;;;3.78;1.70;;;19.60;99.90;;;;;;5066943;28;20044;-64
2022/07/01 12:24:46;;;;;;;4.65;1.20;;;19.90;99.90;;;;;;5065687;28;20095;-64
2022/07/01 12:27:12;;;;;;;2.25;0.80;;;20.10;99.90;;;;;;5067233;28;20084;-64
2022/07/01 12:29:49;;;;;;;1.88;0.80;;;20.40;99.90;;;;;;5065763;28;20126;-64
2022/07/01 12:32:17;;;;;;;4.32;0.90;;;21.00;99.90;;;;;;5064293;28;20041;-65
2022/07/01 12:34:46;;;;;;;2.78;1.15;;;20.80;99.90;;;;;;5066267;28;20052;-64
2022/07/01 12:37:15;;;;;;;4.07;1.00;;;20.70;99.90;;;;;;5066667;28;20053;-64
2022/07/01 12:39:46;;;;;;;4.25;1.08;;;20.60;99.90;;;;;;5066388;28;20075;-65
2022/07/01 12:42:40;;;;;;;5.88;1.50;;;20.90;99.90;;;;;;5065741;28;20052;-65
2022/07/01 12:45:09;;;;;;;5.45;1.13;;;21.00;99.90;;;;;;5065262;28;20054;-64
2022/07/01 12:47:37;;;;;;;4.20;0.73;;;20.90;99.90;;;;;;5064689;28;20102;-64
2022/07/01 12:50:33;;;;;;;2.20;0.80;;;20.80;99.90;;;;;;5066176;28;20045;-64
2022/07/01 12:53:07;;;;;;;2.25;0.82;;;20.70;99.90;;;;;;5065205;28;20377;-65
2022/07/01 12:55:37;;;;;;;2.42;0.73;;;20.70;99.90;;;;;;5064776;28;20129;-64
2022/07/01 12:58:05;;;;;;;1.33;0.70;;;20.90;99.90;;;;;;5064201;28;20084;-64
2022/07/01 13:00:32;;;;;;;5.78;1.38;;;21.10;99.90;;;;;;5065474;28;20053;-64
2022/07/01 13:02:59;;;;;;;1.75;0.40;;;21.10;99.90;;;;;;5065729;28;20036;-65